createdAt,value
2022-10-26T00:00:21.390Z,20.67
2022-10-26T00:01:21.433Z,20.69
2022-10-26T00:02:21.477Z,20.69
2022-10-26T00:03:21.363Z,20.69
2022-10-26T00:04:21.320Z,20.67
2022-10-26T00:05:21.338Z,20.67
2022-10-26T00:06:21.303Z,20.69
2022-10-26T00:07:21.288Z,20.67
2022-10-26T00:08:21.278Z,20.69
2022-10-26T00:09:21.266Z,20.67
2022-10-26T00:10:21.287Z,20.67
2022-10-26T00:11:21.271Z,20.69
2022-10-26T00:12:21.234Z,20.69
2022-10-26T00:13:21.226Z,20.69
2022-10-26T00:14:21.213Z,20.69
2022-10-26T00:15:21.203Z,20.69
2022-10-26T00:16:21.247Z,20.69
2022-10-26T00:17:21.181Z,20.70
2022-10-26T00:18:21.170Z,20.70
2022-10-26T00:19:21.161Z,20.70
2022-10-26T00:20:21.148Z,20.69
2022-10-26T00:21:21.168Z,20.69
2022-10-26T00:22:21.127Z,20.70
2022-10-26T00:23:21.119Z,20.70
2022-10-26T00:24:21.106Z,20.70
2022-10-26T00:25:21.102Z,20.69
2022-10-26T00:26:21.114Z,20.72
2022-10-26T00:27:21.075Z,20.70
2022-10-26T00:28:21.063Z,20.70
2022-10-26T00:29:21.054Z,20.70
2022-10-26T00:30:21.046Z,20.70
2022-10-26T00:31:21.033Z,20.70
2022-10-26T00:32:21.070Z,20.70
2022-10-26T00:33:21.013Z,20.70
2022-10-26T00:34:20.998Z,20.70
2022-10-26T00:35:23.315Z,20.72
2022-10-26T00:36:21.976Z,20.69
2022-10-26T00:37:21.003Z,20.70
2022-10-26T00:38:20.955Z,20.72
2022-10-26T00:39:20.946Z,20.72
2022-10-26T00:40:20.934Z,20.72
2022-10-26T00:41:20.926Z,20.74
2022-10-26T00:42:20.944Z,20.72
2022-10-26T00:43:20.904Z,20.72
2022-10-26T00:44:20.891Z,20.72
2022-10-26T00:45:20.881Z,20.72
2022-10-26T00:46:20.871Z,20.74
2022-10-26T00:47:20.892Z,20.74
2022-10-26T00:48:20.881Z,20.72
2022-10-26T00:49:20.858Z,20.72
2022-10-26T00:50:20.827Z,20.74
2022-10-26T00:51:20.818Z,20.72
2022-10-26T00:52:20.834Z,20.74
2022-10-26T00:53:20.799Z,20.72
2022-10-26T00:54:20.787Z,20.72
2022-10-26T00:55:20.778Z,20.74
2022-10-26T00:56:20.761Z,20.72
2022-10-26T00:57:20.782Z,20.74
2022-10-26T00:58:20.768Z,20.74
2022-10-26T00:59:20.729Z,20.74
2022-10-26T01:00:20.719Z,20.74
2022-10-26T01:01:20.776Z,20.74
2022-10-26T01:02:20.698Z,20.74
2022-10-26T01:03:20.781Z,20.75
2022-10-26T01:04:20.700Z,20.75
2022-10-26T01:05:20.668Z,20.75
2022-10-26T01:06:20.655Z,20.74
2022-10-26T01:08:20.661Z,20.75
2022-10-26T01:09:20.623Z,20.74
2022-10-26T01:10:20.611Z,20.75
2022-10-26T01:11:20.603Z,20.75
2022-10-26T01:12:20.589Z,20.75
2022-10-26T01:13:20.612Z,20.77
2022-10-26T01:14:20.570Z,20.75
2022-10-26T01:15:20.562Z,20.75
2022-10-26T01:16:20.555Z,20.75
2022-10-26T01:17:20.541Z,20.77
2022-10-26T01:18:20.557Z,20.77
2022-10-26T01:19:20.514Z,20.75
2022-10-26T01:20:20.525Z,20.77
2022-10-26T01:21:20.492Z,20.77
2022-10-26T01:22:20.483Z,20.78
2022-10-26T01:23:20.502Z,20.77
2022-10-26T01:24:20.459Z,20.77
2022-10-26T01:25:20.451Z,20.78
2022-10-26T01:26:20.439Z,20.77
2022-10-26T01:27:20.430Z,20.78
2022-10-26T01:28:20.446Z,20.78
2022-10-26T01:29:20.433Z,20.78
2022-10-26T01:30:20.395Z,20.78
2022-10-26T01:31:20.386Z,20.78
2022-10-26T01:32:20.374Z,20.77
2022-10-26T01:33:20.363Z,20.78
2022-10-26T01:34:20.382Z,20.78
2022-10-26T01:35:20.373Z,20.78
2022-10-26T01:36:20.392Z,20.78
2022-10-26T01:37:20.323Z,20.78
2022-10-26T01:38:20.311Z,20.80
2022-10-26T01:39:20.299Z,20.77
2022-10-26T01:40:20.317Z,20.80
2022-10-26T01:41:20.280Z,20.80
2022-10-26T01:42:20.269Z,20.78
2022-10-26T01:43:20.258Z,20.80
2022-10-26T01:44:20.246Z,20.78
2022-10-26T01:45:20.263Z,20.78
2022-10-26T01:47:20.219Z,20.80
2022-10-26T01:48:20.202Z,20.80
2022-10-26T01:49:20.195Z,20.81
2022-10-26T01:50:20.212Z,20.80
2022-10-26T01:51:20.170Z,20.81
2022-10-26T01:52:20.184Z,20.80
2022-10-26T01:53:20.152Z,20.80
2022-10-26T01:54:20.141Z,20.80
2022-10-26T01:55:20.156Z,20.81
2022-10-26T01:56:20.147Z,20.80
2022-10-26T01:57:20.106Z,20.81
2022-10-26T01:58:20.102Z,20.80
2022-10-26T01:59:20.094Z,20.81
2022-10-26T02:00:20.080Z,20.80
2022-10-26T02:01:20.136Z,20.81
2022-10-26T02:02:20.058Z,20.81
2022-10-26T02:03:20.102Z,20.80
2022-10-26T02:04:20.072Z,20.81
2022-10-26T02:05:20.025Z,20.80
2022-10-26T02:06:20.041Z,20.81
2022-10-26T02:07:20.026Z,20.81
2022-10-26T02:08:20.013Z,20.81
2022-10-26T02:09:19.981Z,20.81
2022-10-26T02:10:19.975Z,20.80
2022-10-26T02:11:19.956Z,20.81
2022-10-26T02:12:19.973Z,20.82
2022-10-26T02:13:19.935Z,20.81
2022-10-26T02:14:19.947Z,20.82
2022-10-26T02:15:19.915Z,20.81
2022-10-26T02:16:19.903Z,20.82
2022-10-26T02:17:19.939Z,20.82
2022-10-26T02:18:19.881Z,20.82
2022-10-26T02:19:19.870Z,20.81
2022-10-26T02:20:19.861Z,20.81
2022-10-26T02:21:19.850Z,20.82
2022-10-26T02:22:19.842Z,20.82
2022-10-26T02:23:19.856Z,20.82
2022-10-26T02:24:19.843Z,20.82
2022-10-26T02:25:19.809Z,20.82
2022-10-26T02:26:19.796Z,20.84
2022-10-26T02:27:19.784Z,20.81
2022-10-26T02:28:19.801Z,20.82
2022-10-26T02:29:19.762Z,20.82
2022-10-26T02:30:19.751Z,20.81
2022-10-26T02:31:19.741Z,20.82
2022-10-26T02:32:19.734Z,20.82
2022-10-26T02:33:19.748Z,20.81
2022-10-26T02:34:19.712Z,20.82
2022-10-26T02:35:19.700Z,20.82
2022-10-26T02:36:19.689Z,20.84
2022-10-26T02:37:19.676Z,20.84
2022-10-26T02:38:19.695Z,20.82
2022-10-26T02:39:19.655Z,20.82
2022-10-26T02:40:19.672Z,20.82
2022-10-26T02:41:19.634Z,20.81
2022-10-26T02:42:19.625Z,20.81
2022-10-26T02:43:19.669Z,20.82
2022-10-26T02:44:19.631Z,20.82
2022-10-26T02:45:19.592Z,20.82
2022-10-26T02:46:19.580Z,20.82
2022-10-26T02:47:19.574Z,20.84
2022-10-26T02:48:19.559Z,20.84
2022-10-26T02:49:19.580Z,20.84
2022-10-26T02:50:19.538Z,20.84
2022-10-26T02:51:19.526Z,20.82
2022-10-26T02:52:19.518Z,20.84
2022-10-26T02:53:19.507Z,20.84
2022-10-26T02:54:19.527Z,20.82
2022-10-26T02:55:19.488Z,20.82
2022-10-26T02:56:19.502Z,20.82
2022-10-26T02:57:19.462Z,20.82
2022-10-26T02:58:19.455Z,20.82
2022-10-26T02:59:19.470Z,20.84
2022-10-26T03:00:19.440Z,20.82
2022-10-26T03:01:19.493Z,20.82
2022-10-26T03:02:19.411Z,20.82
2022-10-26T03:03:19.399Z,20.82
2022-10-26T03:04:19.467Z,20.84
2022-10-26T03:05:19.376Z,20.84
2022-10-26T03:06:19.369Z,20.84
2022-10-26T03:07:19.355Z,20.82
2022-10-26T03:08:19.422Z,20.84
2022-10-26T03:09:21.117Z,20.82
2022-10-26T03:10:19.349Z,20.84
2022-10-26T03:11:19.312Z,20.84
2022-10-26T03:12:19.325Z,20.84
2022-10-26T03:13:19.290Z,20.82
2022-10-26T03:14:19.282Z,20.82
2022-10-26T03:15:19.316Z,20.84
2022-10-26T03:16:19.261Z,20.82
2022-10-26T03:17:19.247Z,20.82
2022-10-26T03:18:19.239Z,20.84
2022-10-26T03:19:19.228Z,20.82
2022-10-26T03:20:19.219Z,20.84
2022-10-26T03:21:19.230Z,20.82
2022-10-26T03:22:19.197Z,20.84
2022-10-26T03:23:19.184Z,20.84
2022-10-26T03:24:19.173Z,20.84
2022-10-26T03:25:19.165Z,20.84
2022-10-26T03:26:19.181Z,20.84
2022-10-26T03:27:19.140Z,20.84
2022-10-26T03:28:19.157Z,20.84
2022-10-26T03:29:19.119Z,20.84
2022-10-26T03:30:19.109Z,20.84
2022-10-26T03:31:19.140Z,20.82
2022-10-26T03:32:19.087Z,20.82
2022-10-26T03:33:19.156Z,20.84
2022-10-26T03:34:19.066Z,20.84
2022-10-26T03:35:19.054Z,20.82
2022-10-26T03:36:19.044Z,20.82
2022-10-26T03:37:19.061Z,20.82
2022-10-26T03:38:19.023Z,20.82
2022-10-26T03:39:19.012Z,20.84
2022-10-26T03:40:19.005Z,20.84
2022-10-26T03:41:18.989Z,20.84
2022-10-26T03:42:19.009Z,20.84
2022-10-26T03:43:18.970Z,20.82
2022-10-26T03:44:18.982Z,20.84
2022-10-26T03:45:18.947Z,20.82
2022-10-26T03:46:18.939Z,20.84
2022-10-26T03:47:18.952Z,20.84
2022-10-26T03:48:18.916Z,20.82
2022-10-26T03:49:18.903Z,20.84
2022-10-26T03:50:18.894Z,20.82
2022-10-26T03:51:18.883Z,20.84
2022-10-26T03:52:18.918Z,20.84
2022-10-26T03:53:18.861Z,20.82
2022-10-26T03:54:18.854Z,20.84
2022-10-26T03:55:18.839Z,20.84
2022-10-26T03:56:18.829Z,20.82
2022-10-26T03:57:18.820Z,20.82
2022-10-26T03:58:18.923Z,20.82
2022-10-26T03:59:18.797Z,20.82
2022-10-26T04:00:18.809Z,20.82
2022-10-26T04:01:18.820Z,20.81
2022-10-26T04:02:18.766Z,20.82
2022-10-26T04:03:18.793Z,20.84
2022-10-26T04:04:18.882Z,20.82
2022-10-26T04:05:18.731Z,20.82
2022-10-26T04:06:18.722Z,20.81
2022-10-26T04:07:18.712Z,20.84
2022-10-26T04:08:18.708Z,20.82
2022-10-26T04:09:18.719Z,20.82
2022-10-26T04:10:18.679Z,20.82
2022-10-26T04:11:18.667Z,20.82
2022-10-26T04:12:18.657Z,20.82
2022-10-26T04:13:18.646Z,20.84
2022-10-26T04:14:18.661Z,20.82
2022-10-26T04:15:18.630Z,20.84
2022-10-26T04:16:18.641Z,20.84
2022-10-26T04:17:18.603Z,20.82
2022-10-26T04:18:18.595Z,20.82
2022-10-26T04:19:18.621Z,20.82
2022-10-26T04:20:18.574Z,20.82
2022-10-26T04:21:18.560Z,20.82
2022-10-26T04:22:18.552Z,20.81
2022-10-26T04:23:18.620Z,20.82
2022-10-26T04:24:18.528Z,20.82
2022-10-26T04:25:18.544Z,20.81
2022-10-26T04:26:18.513Z,20.82
2022-10-26T04:27:18.498Z,20.82
2022-10-26T04:28:18.487Z,20.82
2022-10-26T04:29:18.474Z,20.82
2022-10-26T04:30:18.675Z,20.82
2022-10-26T04:31:18.453Z,20.82
2022-10-26T04:32:18.475Z,20.82
2022-10-26T04:33:18.431Z,20.81
2022-10-26T04:34:18.423Z,20.84
2022-10-26T04:35:18.411Z,20.81
2022-10-26T04:36:18.430Z,20.82
2022-10-26T04:37:18.390Z,20.82
2022-10-26T04:38:18.380Z,20.81
2022-10-26T04:39:18.368Z,20.81
2022-10-26T04:40:18.357Z,20.82
2022-10-26T04:41:18.375Z,20.82
2022-10-26T04:42:18.338Z,20.81
2022-10-26T04:43:18.324Z,20.82
2022-10-26T04:44:18.317Z,20.82
2022-10-26T04:45:18.307Z,20.81
2022-10-26T04:46:18.334Z,20.81
2022-10-26T04:47:18.281Z,20.82
2022-10-26T04:48:18.360Z,20.82
2022-10-26T04:49:18.260Z,20.81
2022-10-26T04:50:18.253Z,20.81
2022-10-26T04:51:18.239Z,20.81
2022-10-26T04:52:18.270Z,20.80
2022-10-26T04:53:18.217Z,20.81
2022-10-26T04:54:18.209Z,20.82
2022-10-26T04:55:18.196Z,20.84
2022-10-26T04:56:18.188Z,20.81
2022-10-26T04:57:18.174Z,20.81
2022-10-26T04:58:18.190Z,20.81
2022-10-26T04:59:18.152Z,20.81
2022-10-26T05:00:18.145Z,20.81
2022-10-26T05:01:18.214Z,20.81
2022-10-26T05:02:18.261Z,20.82
2022-10-26T05:03:18.137Z,20.81
2022-10-26T05:04:18.126Z,20.81
2022-10-26T05:05:18.088Z,20.82
2022-10-26T05:06:18.080Z,20.81
2022-10-26T05:07:18.067Z,20.81
2022-10-26T05:08:18.082Z,20.81
2022-10-26T05:09:18.054Z,20.81
2022-10-26T05:10:18.038Z,20.81
2022-10-26T05:11:18.024Z,20.82
2022-10-26T05:12:18.013Z,20.82
2022-10-26T05:13:18.091Z,20.81
2022-10-26T05:14:18.002Z,20.81
2022-10-26T05:15:17.981Z,20.82
2022-10-26T05:16:17.973Z,20.81
2022-10-26T05:17:17.964Z,20.81
2022-10-26T05:18:17.976Z,20.81
2022-10-26T05:19:17.943Z,20.82
2022-10-26T05:20:17.954Z,20.81
2022-10-26T05:21:17.916Z,20.82
2022-10-26T05:22:17.909Z,20.81
2022-10-26T05:23:17.935Z,20.81
2022-10-26T05:24:17.887Z,20.80
2022-10-26T05:25:17.874Z,20.82
2022-10-26T05:26:17.868Z,20.82
2022-10-26T05:27:17.851Z,20.81
2022-10-26T05:28:17.844Z,20.80
2022-10-26T05:29:17.871Z,20.81
2022-10-26T05:30:17.820Z,20.80
2022-10-26T05:31:17.809Z,20.80
2022-10-26T05:32:17.802Z,20.81
2022-10-26T05:33:17.788Z,20.81
2022-10-26T05:34:17.779Z,20.81
2022-10-26T05:35:17.792Z,20.80
2022-10-26T05:36:17.779Z,20.81
2022-10-26T05:37:17.749Z,20.80
2022-10-26T05:38:17.835Z,20.81
2022-10-26T05:39:17.724Z,20.80
2022-10-26T05:40:17.739Z,20.80
2022-10-26T05:41:17.704Z,20.80
2022-10-26T05:42:17.691Z,20.80
2022-10-26T05:43:17.681Z,20.80
2022-10-26T05:44:17.673Z,20.78
2022-10-26T05:45:17.686Z,20.80
2022-10-26T05:46:17.651Z,20.81
2022-10-26T05:47:17.640Z,20.80
2022-10-26T05:48:17.656Z,20.81
2022-10-26T05:49:17.616Z,20.80
2022-10-26T05:50:17.634Z,20.81
2022-10-26T05:51:17.595Z,20.81
2022-10-26T05:52:17.610Z,20.80
2022-10-26T05:53:17.572Z,20.81
2022-10-26T05:54:17.563Z,20.80
2022-10-26T05:55:17.577Z,20.80
2022-10-26T05:56:17.541Z,20.80
2022-10-26T05:57:17.529Z,20.80
2022-10-26T05:58:17.522Z,20.80
2022-10-26T05:59:17.509Z,20.80
2022-10-26T06:00:17.524Z,20.80
2022-10-26T06:01:17.603Z,20.80
2022-10-26T06:02:17.605Z,20.80
2022-10-26T06:03:17.502Z,20.80
2022-10-26T06:04:17.455Z,20.80
2022-10-26T06:05:17.486Z,20.80
2022-10-26T06:06:17.433Z,20.81
2022-10-26T06:07:17.430Z,20.78
2022-10-26T06:08:17.433Z,20.80
2022-10-26T06:09:17.407Z,20.80
2022-10-26T06:10:17.393Z,20.81
2022-10-26T06:11:17.405Z,20.80
2022-10-26T06:12:19.585Z,20.80
2022-10-26T06:13:17.359Z,20.80
2022-10-26T06:14:17.347Z,20.81
2022-10-26T06:15:17.338Z,20.80
2022-10-26T06:16:17.351Z,20.80
2022-10-26T06:17:17.321Z,20.80
2022-10-26T06:18:17.306Z,20.80
2022-10-26T06:19:17.292Z,20.80
2022-10-26T06:20:17.285Z,20.80
2022-10-26T06:21:17.297Z,20.80
2022-10-26T06:22:17.262Z,20.80
2022-10-26T06:23:17.249Z,20.78
2022-10-26T06:24:17.263Z,20.81
2022-10-26T06:25:17.238Z,20.80
2022-10-26T06:26:17.246Z,20.80
2022-10-26T06:27:19.513Z,20.80
2022-10-26T06:28:17.198Z,20.81
2022-10-26T06:29:17.184Z,20.80
2022-10-26T06:30:17.178Z,20.81
2022-10-26T06:31:17.190Z,20.81
2022-10-26T06:32:17.159Z,20.80
2022-10-26T06:33:28.839Z,20.81
2022-10-26T06:34:18.132Z,20.81
2022-10-26T06:35:17.121Z,20.80
2022-10-26T06:36:17.144Z,20.82
2022-10-26T06:37:17.098Z,20.81
2022-10-26T06:38:17.092Z,20.80
2022-10-26T06:39:17.080Z,20.80
2022-10-26T06:40:17.097Z,20.81
2022-10-26T06:41:17.084Z,20.82
2022-10-26T06:42:17.046Z,20.81
2022-10-26T06:43:17.034Z,20.81
2022-10-26T06:44:17.025Z,20.81
2022-10-26T06:45:17.022Z,20.81
2022-10-26T06:46:17.032Z,20.81
2022-10-26T06:47:19.800Z,20.81
2022-10-26T06:48:17.981Z,20.81
2022-10-26T06:49:16.970Z,20.82
2022-10-26T06:50:16.962Z,20.81
2022-10-26T06:51:16.975Z,20.82
2022-10-26T06:52:16.942Z,20.81
2022-10-26T06:53:16.927Z,20.82
2022-10-26T06:54:16.918Z,20.81
2022-10-26T06:55:16.909Z,20.81
2022-10-26T06:56:16.963Z,20.82
2022-10-26T06:57:16.910Z,20.82
2022-10-26T06:58:16.878Z,20.82
2022-10-26T06:59:16.865Z,20.82
2022-10-26T07:00:16.893Z,20.82
2022-10-26T07:01:16.897Z,20.84
2022-10-26T07:02:16.985Z,20.82
2022-10-26T07:03:16.819Z,20.82
2022-10-26T07:04:16.812Z,20.84
2022-10-26T07:05:16.800Z,20.82
2022-10-26T07:06:16.797Z,20.84
2022-10-26T07:07:16.804Z,20.84
2022-10-26T07:08:16.769Z,20.84
2022-10-26T07:09:16.757Z,20.84
2022-10-26T07:10:16.745Z,20.84
2022-10-26T07:11:16.735Z,20.84
2022-10-26T07:12:16.776Z,20.84
2022-10-26T07:13:16.712Z,20.84
2022-10-26T07:14:16.707Z,20.84
2022-10-26T07:15:16.703Z,20.85
2022-10-26T07:16:16.682Z,20.85
2022-10-26T07:17:16.714Z,20.85
2022-10-26T07:18:16.660Z,20.85
2022-10-26T07:19:16.652Z,20.85
2022-10-26T07:20:16.642Z,20.85
2022-10-26T07:21:16.626Z,20.85
2022-10-26T07:22:16.617Z,20.87
2022-10-26T07:23:16.631Z,20.85
2022-10-26T07:24:16.598Z,20.85
2022-10-26T07:25:16.584Z,20.87
2022-10-26T07:26:16.580Z,20.87
2022-10-26T07:27:16.560Z,20.85
2022-10-26T07:28:16.609Z,20.87
2022-10-26T07:29:16.543Z,20.87
2022-10-26T07:30:16.536Z,20.88
2022-10-26T07:31:16.537Z,20.87
2022-10-26T07:32:16.531Z,20.88
2022-10-26T07:33:16.523Z,20.87
2022-10-26T07:34:16.491Z,20.88
2022-10-26T07:35:16.477Z,20.87
2022-10-26T07:36:16.468Z,20.88
2022-10-26T07:37:16.455Z,20.88
2022-10-26T07:38:16.802Z,20.88
2022-10-26T07:39:16.435Z,20.88
2022-10-26T07:40:16.515Z,20.87
2022-10-26T07:41:16.413Z,20.87
2022-10-26T07:42:16.402Z,20.87
2022-10-26T07:43:16.390Z,20.88
2022-10-26T07:44:16.434Z,20.88
2022-10-26T07:45:16.371Z,20.88
2022-10-26T07:46:16.359Z,20.88
2022-10-26T07:47:16.349Z,20.90
2022-10-26T07:48:16.342Z,20.88
2022-10-26T07:49:19.271Z,20.90
2022-10-26T07:50:16.321Z,20.88
2022-10-26T07:51:16.307Z,20.90
2022-10-26T07:52:16.295Z,20.90
2022-10-26T07:53:16.283Z,20.90
2022-10-26T07:54:16.323Z,20.90
2022-10-26T07:55:16.263Z,20.92
2022-10-26T07:56:16.257Z,20.90
2022-10-26T07:57:16.242Z,20.90
2022-10-26T07:58:16.233Z,20.90
2022-10-26T07:59:16.222Z,20.90
2022-10-26T08:00:16.260Z,20.90
2022-10-26T08:01:16.326Z,20.92
2022-10-26T08:02:16.188Z,20.92
2022-10-26T08:03:16.179Z,20.90
2022-10-26T08:04:16.171Z,20.92
2022-10-26T08:05:16.182Z,20.93
2022-10-26T08:06:16.144Z,20.92
2022-10-26T08:07:16.135Z,20.90
2022-10-26T08:08:16.124Z,20.92
2022-10-26T08:09:16.112Z,20.90
2022-10-26T08:10:16.143Z,20.92
2022-10-26T08:11:16.094Z,20.92
2022-10-26T08:12:16.082Z,20.93
2022-10-26T08:13:16.068Z,20.92
2022-10-26T08:14:16.061Z,20.93
2022-10-26T08:15:16.048Z,20.90
2022-10-26T08:16:16.089Z,20.92
2022-10-26T08:17:16.029Z,20.93
2022-10-26T08:18:16.016Z,20.92
2022-10-26T08:19:16.006Z,20.92
2022-10-26T08:20:15.997Z,20.93
2022-10-26T08:21:21.855Z,20.93
2022-10-26T08:22:16.973Z,20.93
2022-10-26T08:23:15.962Z,20.93
2022-10-26T08:24:15.953Z,20.93
2022-10-26T08:25:18.931Z,20.93
2022-10-26T08:26:16.958Z,20.95
2022-10-26T08:27:15.919Z,20.95
2022-10-26T08:28:15.909Z,20.95
2022-10-26T08:29:15.895Z,20.92
2022-10-26T08:30:15.886Z,20.93
2022-10-26T08:31:15.901Z,20.93
2022-10-26T08:32:15.897Z,20.96
2022-10-26T08:33:15.862Z,20.95
2022-10-26T08:34:15.848Z,20.95
2022-10-26T08:35:15.845Z,20.95
2022-10-26T08:36:15.868Z,20.93
2022-10-26T08:37:15.812Z,20.96
2022-10-26T08:38:15.805Z,20.95
2022-10-26T08:39:15.791Z,20.96
2022-10-26T08:40:15.797Z,20.96
2022-10-26T08:41:15.769Z,20.96
2022-10-26T08:42:15.801Z,20.96
2022-10-26T08:43:15.748Z,20.97
2022-10-26T08:44:15.738Z,20.96
2022-10-26T08:45:15.728Z,20.97
2022-10-26T08:46:15.720Z,20.97
2022-10-26T08:47:15.737Z,20.97
2022-10-26T08:48:15.783Z,20.96
2022-10-26T08:49:15.693Z,20.97
2022-10-26T08:50:15.672Z,20.96
2022-10-26T08:51:15.663Z,20.96
2022-10-26T08:52:15.654Z,20.96
2022-10-26T08:53:15.666Z,20.96
2022-10-26T08:54:15.631Z,20.97
2022-10-26T08:55:15.620Z,20.96
2022-10-26T08:56:15.611Z,20.96
2022-10-26T08:57:15.597Z,20.96
2022-10-26T08:58:15.616Z,20.97
2022-10-26T08:59:15.577Z,20.96
2022-10-26T09:00:15.571Z,20.96
2022-10-26T09:01:15.717Z,20.99
2022-10-26T09:02:15.547Z,20.96
2022-10-26T09:03:15.563Z,20.97
2022-10-26T09:04:15.598Z,20.95
2022-10-26T09:05:15.514Z,20.96
2022-10-26T09:06:15.515Z,20.95
2022-10-26T09:07:15.491Z,20.96
2022-10-26T09:08:15.522Z,20.97
2022-10-26T09:09:15.470Z,20.97
2022-10-26T09:10:15.493Z,20.96
2022-10-26T09:11:15.448Z,20.96
2022-10-26T09:12:15.457Z,20.95
2022-10-26T09:13:15.426Z,20.96
2022-10-26T09:14:15.444Z,20.96
2022-10-26T09:15:15.412Z,20.96
2022-10-26T09:16:15.398Z,20.96
2022-10-26T09:17:15.387Z,20.96
2022-10-26T09:18:15.374Z,20.97
2022-10-26T09:19:15.391Z,20.97
2022-10-26T09:20:15.376Z,20.97
2022-10-26T09:21:15.340Z,20.97
2022-10-26T09:22:15.332Z,20.96
2022-10-26T09:23:15.319Z,20.97
2022-10-26T09:24:15.334Z,20.96
2022-10-26T09:25:15.297Z,20.96
2022-10-26T09:26:15.287Z,20.97
2022-10-26T09:27:15.278Z,20.96
2022-10-26T09:28:15.273Z,20.96
2022-10-26T09:29:15.286Z,20.97
2022-10-26T09:30:15.255Z,20.97
2022-10-26T09:31:15.235Z,20.99
2022-10-26T09:32:15.225Z,20.97
2022-10-26T09:33:15.223Z,20.97
2022-10-26T09:34:15.243Z,20.97
2022-10-26T09:35:15.311Z,20.97
2022-10-26T09:36:16.932Z,20.97
2022-10-26T09:37:15.168Z,20.99
2022-10-26T09:38:15.162Z,20.99
2022-10-26T09:39:15.147Z,20.99
2022-10-26T09:40:15.163Z,20.99
2022-10-26T09:41:15.130Z,20.99
2022-10-26T09:42:15.118Z,20.99
2022-10-26T09:43:15.107Z,20.99
2022-10-26T09:44:15.095Z,20.99
2022-10-26T09:45:15.112Z,21.00
2022-10-26T09:46:15.072Z,20.99
2022-10-26T09:47:15.062Z,21.00
2022-10-26T09:48:15.056Z,21.02
2022-10-26T09:49:15.040Z,21.02
2022-10-26T09:50:15.061Z,21.00
2022-10-26T09:51:15.022Z,21.00
2022-10-26T09:52:15.037Z,20.99
2022-10-26T09:53:14.998Z,21.00
2022-10-26T09:54:14.989Z,20.99
2022-10-26T09:55:15.005Z,21.00
2022-10-26T09:56:14.969Z,20.99
2022-10-26T09:57:14.954Z,21.02
2022-10-26T09:58:14.944Z,21.00
2022-10-26T09:59:14.933Z,21.00
2022-10-26T10:00:14.962Z,21.00
2022-10-26T10:01:14.979Z,21.00
2022-10-26T10:02:14.904Z,21.00
2022-10-26T10:03:14.929Z,20.99
2022-10-26T10:04:14.881Z,21.00
2022-10-26T10:05:23.024Z,21.00
2022-10-26T10:06:15.883Z,21.00
2022-10-26T10:07:14.847Z,20.99
2022-10-26T10:08:14.910Z,21.00
2022-10-26T10:09:14.904Z,21.00
2022-10-26T10:10:14.848Z,21.00
2022-10-26T10:11:14.860Z,20.99
2022-10-26T10:12:14.798Z,21.00
2022-10-26T10:13:14.801Z,21.00
2022-10-26T10:14:14.831Z,21.00
2022-10-26T10:15:14.765Z,20.99
2022-10-26T10:16:14.778Z,21.00
2022-10-26T10:17:14.742Z,21.02
2022-10-26T10:18:14.730Z,20.99
2022-10-26T10:19:14.719Z,21.02
2022-10-26T10:20:14.713Z,20.99
2022-10-26T10:21:14.722Z,20.99
2022-10-26T10:22:14.688Z,21.00
2022-10-26T10:23:14.680Z,20.99
2022-10-26T10:24:14.690Z,21.00
2022-10-26T10:25:14.655Z,20.99
2022-10-26T10:26:14.669Z,21.00
2022-10-26T10:27:14.638Z,20.99
2022-10-26T10:28:14.677Z,21.00
2022-10-26T10:29:14.614Z,20.99
2022-10-26T10:30:14.601Z,20.99
2022-10-26T10:32:14.581Z,21.00
2022-10-26T10:33:14.569Z,20.99
2022-10-26T10:34:14.558Z,20.99
2022-10-26T10:35:14.550Z,21.00
2022-10-26T10:36:14.536Z,20.99
2022-10-26T10:37:14.554Z,21.00
2022-10-26T10:38:14.521Z,21.00
2022-10-26T10:39:14.541Z,21.00
2022-10-26T10:40:18.023Z,21.00
2022-10-26T10:41:14.566Z,21.00
2022-10-26T10:42:14.499Z,21.02
2022-10-26T10:43:14.548Z,21.00
2022-10-26T10:44:14.449Z,21.00
2022-10-26T10:45:14.468Z,21.00
2022-10-26T10:46:14.460Z,21.00
2022-10-26T10:47:14.487Z,20.99
2022-10-26T10:48:14.474Z,20.99
2022-10-26T10:49:14.398Z,20.99
2022-10-26T10:50:14.386Z,21.02
2022-10-26T10:51:14.378Z,21.00
2022-10-26T10:52:14.395Z,21.02
2022-10-26T10:53:14.353Z,21.00
2022-10-26T10:54:14.342Z,21.00
2022-10-26T10:55:14.333Z,21.00
2022-10-26T10:56:14.344Z,21.00
2022-10-26T10:57:14.337Z,21.00
2022-10-26T10:58:14.300Z,21.02
2022-10-26T10:59:14.290Z,21.02
2022-10-26T11:00:14.277Z,21.02
2022-10-26T11:01:14.375Z,21.03
2022-10-26T11:02:14.643Z,21.03
2022-10-26T11:03:14.245Z,21.03
2022-10-26T11:05:14.333Z,21.03
2022-10-26T11:06:14.212Z,21.02
2022-10-26T11:07:14.246Z,21.02
2022-10-26T11:08:14.213Z,21.03
2022-10-26T11:09:14.181Z,21.02
2022-10-26T11:10:14.217Z,21.03
2022-10-26T11:11:14.158Z,21.02
2022-10-26T11:12:14.181Z,21.02
2022-10-26T11:13:14.196Z,21.03
2022-10-26T11:14:14.219Z,21.03
2022-10-26T11:15:14.114Z,21.03
2022-10-26T11:16:14.103Z,21.02
2022-10-26T11:17:14.093Z,21.03
2022-10-26T11:18:14.106Z,21.03
2022-10-26T11:19:14.074Z,21.02
2022-10-26T11:20:14.930Z,21.03
2022-10-26T11:21:14.059Z,21.02
2022-10-26T11:22:14.041Z,21.00
2022-10-26T11:23:14.071Z,21.00
2022-10-26T11:24:14.021Z,21.02
2022-10-26T11:25:14.014Z,21.02
2022-10-26T11:26:13.998Z,21.02
2022-10-26T11:27:13.990Z,21.02
2022-10-26T11:28:14.064Z,21.02
2022-10-26T11:29:14.189Z,21.02
2022-10-26T11:30:14.041Z,20.99
2022-10-26T11:31:13.945Z,21.02
2022-10-26T11:32:13.934Z,21.00
2022-10-26T11:33:13.925Z,21.00
2022-10-26T11:34:13.942Z,20.99
2022-10-26T11:35:13.906Z,20.99
2022-10-26T11:36:17.173Z,20.99
2022-10-26T11:37:14.881Z,20.99
2022-10-26T11:38:13.870Z,20.99
2022-10-26T11:39:13.899Z,20.99
2022-10-26T11:40:13.851Z,20.97
2022-10-26T11:41:13.845Z,20.99
2022-10-26T11:42:13.827Z,20.99
2022-10-26T11:43:13.815Z,21.00
2022-10-26T11:44:13.833Z,21.00
2022-10-26T11:45:13.823Z,21.00
2022-10-26T11:46:16.611Z,21.00
2022-10-26T11:47:14.777Z,20.99
2022-10-26T11:48:13.763Z,21.00
2022-10-26T11:49:13.753Z,20.99
2022-10-26T11:50:17.181Z,20.99
2022-10-26T11:51:13.735Z,20.99
2022-10-26T11:52:13.719Z,20.99
2022-10-26T11:53:13.710Z,20.99
2022-10-26T11:54:13.742Z,20.99
2022-10-26T11:55:13.714Z,21.00
2022-10-26T11:56:13.676Z,20.99
2022-10-26T11:57:13.667Z,21.00
2022-10-26T11:58:13.653Z,20.99
2022-10-26T11:59:13.647Z,21.00
2022-10-26T12:00:13.695Z,21.00
2022-10-26T12:01:13.691Z,21.00
2022-10-26T12:02:13.611Z,20.99
2022-10-26T12:03:13.601Z,20.99
2022-10-26T12:04:13.591Z,21.00
2022-10-26T12:05:13.580Z,21.00
2022-10-26T12:06:13.594Z,20.99
2022-10-26T12:07:13.561Z,21.00
2022-10-26T12:08:13.562Z,20.99
2022-10-26T12:09:13.539Z,21.00
2022-10-26T12:10:13.526Z,20.99
2022-10-26T12:11:13.543Z,20.99
2022-10-26T12:12:13.509Z,21.00
2022-10-26T12:13:13.493Z,20.99
2022-10-26T12:14:13.485Z,21.00
2022-10-26T12:15:13.472Z,21.00
2022-10-26T12:16:13.516Z,21.00
2022-10-26T12:17:13.451Z,20.99
2022-10-26T12:18:13.443Z,20.99
2022-10-26T12:19:13.429Z,20.99
2022-10-26T12:20:13.420Z,21.00
2022-10-26T12:21:13.449Z,20.99
2022-10-26T12:22:13.403Z,21.00
2022-10-26T12:23:19.090Z,21.00
2022-10-26T12:24:14.374Z,20.99
2022-10-26T12:25:15.195Z,21.00
2022-10-26T12:26:13.355Z,21.00
2022-10-26T12:27:13.370Z,21.02
2022-10-26T12:28:13.336Z,21.00
2022-10-26T12:29:13.325Z,21.02
2022-10-26T12:30:13.313Z,21.00
2022-10-26T12:31:13.301Z,21.00
2022-10-26T12:32:13.353Z,21.00
2022-10-26T12:33:13.279Z,21.00
2022-10-26T12:34:13.268Z,21.00
2022-10-26T12:35:13.257Z,20.99
2022-10-26T12:36:13.248Z,21.00
2022-10-26T12:37:13.235Z,21.00
2022-10-26T12:38:13.255Z,21.00
2022-10-26T12:39:13.215Z,20.99
2022-10-26T12:40:13.213Z,21.00
2022-10-26T12:41:13.192Z,21.00
2022-10-26T12:42:13.182Z,21.00
2022-10-26T12:43:13.212Z,21.00
2022-10-26T12:44:13.160Z,21.00
2022-10-26T12:45:13.151Z,21.00
2022-10-26T12:46:13.139Z,21.02
2022-10-26T12:47:13.126Z,21.00
2022-10-26T12:48:27.486Z,21.00
2022-10-26T12:49:14.131Z,21.00
2022-10-26T12:50:13.097Z,21.00
2022-10-26T12:51:13.085Z,21.00
2022-10-26T12:52:13.078Z,21.00
2022-10-26T12:53:13.063Z,21.00
2022-10-26T12:54:13.083Z,21.00
2022-10-26T12:55:13.047Z,21.00
2022-10-26T12:56:13.031Z,21.00